DTTX/SFA METAR and TAF weather

Enter ICAO airport designator
Station Type Date Time Source
DTTX METAR 2019/02/17 08:00 UTC NOAA

DTTX 170800Z 31003KT 260V340 9999 FEW030 09/03 Q1030


Station Type Date Time Source
DTTX Decoded METAR 2019/02/17 08:00 UTC NOAA

Sfax El-Maou, Tunisia (DTTX) 34-43N 010-41E 23M
Feb 17, 2019 - 03:00 AM EST / 2019.02.17 0800 UTC
Wind: from the NW (310 degrees) at 3 MPH (3 KT) (direction variable):0
Visibility: greater than 7 mile(s):0
Sky conditions: mostly clear
Temperature: 48 F (9 C)
Dew Point: 37 F (3 C)
Relative Humidity: 66%
Pressure (altimeter): 30.42 in. Hg (1030 hPa)
ob: DTTX 170800Z 31003KT 260V340 9999 FEW030 09/03 Q1030
cycle: 8

Station Type Date Time Source
DTTX TAF 2019/02/17 06:51 UTC NOAA

TAF DTTX 170500Z 1706/1806 VRB04KT 9999 FEW030
BECMG 1712/1714 14010KT


Example: see airport list